sensor_id;sensor_type;location;lat;lon;timestamp;P1;durP1;ratioP1;P2;durP2;ratioP2
12407;SDS011;6268;48.188;17.134;2023-04-24T00:00:56;4.65;;;4.25;;
12407;SDS011;6268;48.188;17.134;2023-04-24T00:03:27;4.78;;;4.38;;
12407;SDS011;6268;48.188;17.134;2023-04-24T00:05:58;5.20;;;4.78;;
12407;SDS011;6268;48.188;17.134;2023-04-24T00:08:27;4.70;;;4.40;;
12407;SDS011;6268;48.188;17.134;2023-04-24T00:10:56;5.30;;;4.90;;
12407;SDS011;6268;48.188;17.134;2023-04-24T00:13:24;6.30;;;5.00;;
12407;SDS011;6268;48.188;17.134;2023-04-24T00:15:54;5.28;;;4.85;;
12407;SDS011;6268;48.188;17.134;2023-04-24T00:18:23;5.53;;;5.13;;
12407;SDS011;6268;48.188;17.134;2023-04-24T00:20:52;6.40;;;5.43;;
12407;SDS011;6268;48.188;17.134;2023-04-24T00:23:22;5.68;;;5.28;;
12407;SDS011;6268;48.188;17.134;2023-04-24T00:25:51;6.03;;;5.63;;
12407;SDS011;6268;48.188;17.134;2023-04-24T00:28:19;6.55;;;5.95;;
12407;SDS011;6268;48.188;17.134;2023-04-24T00:30:48;5.90;;;5.22;;
12407;SDS011;6268;48.188;17.134;2023-04-24T00:33:17;5.88;;;5.53;;
12407;SDS011;6268;48.188;17.134;2023-04-24T00:35:46;6.10;;;5.63;;
12407;SDS011;6268;48.188;17.134;2023-04-24T00:38:14;5.80;;;5.40;;
12407;SDS011;6268;48.188;17.134;2023-04-24T00:40:44;7.05;;;6.35;;
12407;SDS011;6268;48.188;17.134;2023-04-24T00:43:14;6.40;;;5.90;;
12407;SDS011;6268;48.188;17.134;2023-04-24T00:45:42;6.30;;;5.80;;
12407;SDS011;6268;48.188;17.134;2023-04-24T00:48:11;6.47;;;6.03;;
12407;SDS011;6268;48.188;17.134;2023-04-24T00:50:41;6.18;;;5.60;;
12407;SDS011;6268;48.188;17.134;2023-04-24T00:53:10;6.03;;;5.53;;
12407;SDS011;6268;48.188;17.134;2023-04-24T00:55:39;6.85;;;6.35;;
12407;SDS011;6268;48.188;17.134;2023-04-24T00:58:09;7.10;;;6.50;;
12407;SDS011;6268;48.188;17.134;2023-04-24T01:00:38;7.38;;;6.68;;
12407;SDS011;6268;48.188;17.134;2023-04-24T01:03:07;7.43;;;6.82;;
12407;SDS011;6268;48.188;17.134;2023-04-24T01:05:37;7.15;;;6.57;;
12407;SDS011;6268;48.188;17.134;2023-04-24T01:08:06;7.32;;;6.75;;
12407;SDS011;6268;48.188;17.134;2023-04-24T01:10:35;7.47;;;6.90;;
12407;SDS011;6268;48.188;17.134;2023-04-24T01:13:07;7.10;;;6.55;;
12407;SDS011;6268;48.188;17.134;2023-04-24T01:15:38;7.38;;;6.63;;
12407;SDS011;6268;48.188;17.134;2023-04-24T01:18:07;7.53;;;6.65;;
12407;SDS011;6268;48.188;17.134;2023-04-24T01:20:35;6.90;;;6.35;;
12407;SDS011;6268;48.188;17.134;2023-04-24T01:23:08;6.82;;;6.32;;
12407;SDS011;6268;48.188;17.134;2023-04-24T01:25:38;8.63;;;7.82;;
12407;SDS011;6268;48.188;17.134;2023-04-24T01:28:07;7.65;;;6.82;;
12407;SDS011;6268;48.188;17.134;2023-04-24T01:30:35;7.30;;;6.78;;
12407;SDS011;6268;48.188;17.134;2023-04-24T01:33:05;6.63;;;6.03;;
12407;SDS011;6268;48.188;17.134;2023-04-24T01:35:34;6.72;;;6.05;;
12407;SDS011;6268;48.188;17.134;2023-04-24T01:38:03;7.22;;;6.63;;
12407;SDS011;6268;48.188;17.134;2023-04-24T01:40:34;7.00;;;6.38;;
12407;SDS011;6268;48.188;17.134;2023-04-24T01:43:03;7.90;;;6.45;;
12407;SDS011;6268;48.188;17.134;2023-04-24T01:45:32;8.23;;;7.50;;
12407;SDS011;6268;48.188;17.134;2023-04-24T01:48:01;7.40;;;6.70;;
12407;SDS011;6268;48.188;17.134;2023-04-24T01:50:30;6.88;;;6.28;;
12407;SDS011;6268;48.188;17.134;2023-04-24T01:52:59;6.75;;;6.15;;
12407;SDS011;6268;48.188;17.134;2023-04-24T01:55:28;6.63;;;6.00;;
12407;SDS011;6268;48.188;17.134;2023-04-24T01:57:58;6.72;;;6.22;;
12407;SDS011;6268;48.188;17.134;2023-04-24T02:00:29;7.22;;;6.53;;
12407;SDS011;6268;48.188;17.134;2023-04-24T02:02:58;7.07;;;6.53;;
12407;SDS011;6268;48.188;17.134;2023-04-24T02:05:28;6.88;;;6.28;;
12407;SDS011;6268;48.188;17.134;2023-04-24T02:07:57;7.05;;;6.53;;
12407;SDS011;6268;48.188;17.134;2023-04-24T02:10:26;6.65;;;6.15;;
12407;SDS011;6268;48.188;17.134;2023-04-24T02:12:55;8.18;;;6.82;;
12407;SDS011;6268;48.188;17.134;2023-04-24T02:15:25;6.75;;;6.25;;
12407;SDS011;6268;48.188;17.134;2023-04-24T02:18:02;7.47;;;6.88;;
12407;SDS011;6268;48.188;17.134;2023-04-24T02:20:33;6.78;;;6.15;;
12407;SDS011;6268;48.188;17.134;2023-04-24T02:23:01;6.47;;;5.97;;
12407;SDS011;6268;48.188;17.134;2023-04-24T02:25:30;6.97;;;6.43;;
12407;SDS011;6268;48.188;17.134;2023-04-24T02:27:59;7.68;;;7.07;;
12407;SDS011;6268;48.188;17.134;2023-04-24T02:30:31;8.43;;;7.70;;
12407;SDS011;6268;48.188;17.134;2023-04-24T02:33:02;8.10;;;7.50;;
12407;SDS011;6268;48.188;17.134;2023-04-24T02:35:36;7.95;;;7.32;;
12407;SDS011;6268;48.188;17.134;2023-04-24T02:38:05;7.80;;;7.15;;
12407;SDS011;6268;48.188;17.134;2023-04-24T02:40:37;8.52;;;6.75;;
12407;SDS011;6268;48.188;17.134;2023-04-24T02:43:09;7.75;;;7.15;;
12407;SDS011;6268;48.188;17.134;2023-04-24T02:45:39;7.28;;;6.68;;
12407;SDS011;6268;48.188;17.134;2023-04-24T02:48:08;7.45;;;6.78;;
12407;SDS011;6268;48.188;17.134;2023-04-24T02:50:36;7.80;;;7.10;;
12407;SDS011;6268;48.188;17.134;2023-04-24T02:53:06;8.02;;;7.30;;
12407;SDS011;6268;48.188;17.134;2023-04-24T02:55:34;7.90;;;7.18;;
12407;SDS011;6268;48.188;17.134;2023-04-24T02:58:04;8.32;;;7.72;;
12407;SDS011;6268;48.188;17.134;2023-04-24T03:00:32;8.43;;;7.63;;
12407;SDS011;6268;48.188;17.134;2023-04-24T03:03:03;8.65;;;7.95;;
12407;SDS011;6268;48.188;17.134;2023-04-24T03:05:32;8.55;;;7.72;;
12407;SDS011;6268;48.188;17.134;2023-04-24T03:08:01;8.60;;;7.85;;
12407;SDS011;6268;48.188;17.134;2023-04-24T03:10:30;10.63;;;7.95;;
12407;SDS011;6268;48.188;17.134;2023-04-24T03:12:59;9.80;;;9.00;;
12407;SDS011;6268;48.188;17.134;2023-04-24T03:15:27;8.43;;;7.82;;
12407;SDS011;6268;48.188;17.134;2023-04-24T03:17:56;8.38;;;7.57;;
12407;SDS011;6268;48.188;17.134;2023-04-24T03:20:26;7.72;;;7.13;;
12407;SDS011;6268;48.188;17.134;2023-04-24T03:22:55;7.28;;;6.72;;
12407;SDS011;6268;48.188;17.134;2023-04-24T03:25:24;8.57;;;7.13;;
12407;SDS011;6268;48.188;17.134;2023-04-24T03:27:52;7.70;;;7.20;;
12407;SDS011;6268;48.188;17.134;2023-04-24T03:30:21;7.82;;;7.18;;
12407;SDS011;6268;48.188;17.134;2023-04-24T03:32:50;7.97;;;7.22;;
12407;SDS011;6268;48.188;17.134;2023-04-24T03:35:19;7.82;;;7.13;;
12407;SDS011;6268;48.188;17.134;2023-04-24T03:37:50;8.80;;;7.57;;
12407;SDS011;6268;48.188;17.134;2023-04-24T03:40:18;8.10;;;7.38;;
12407;SDS011;6268;48.188;17.134;2023-04-24T03:42:47;7.65;;;6.90;;
12407;SDS011;6268;48.188;17.134;2023-04-24T03:45:16;8.45;;;7.38;;
12407;SDS011;6268;48.188;17.134;2023-04-24T03:47:45;9.88;;;8.98;;
12407;SDS011;6268;48.188;17.134;2023-04-24T03:50:14;9.68;;;8.75;;
12407;SDS011;6268;48.188;17.134;2023-04-24T03:52:43;9.48;;;8.63;;
12407;SDS011;6268;48.188;17.134;2023-04-24T03:55:13;10.35;;;9.23;;
12407;SDS011;6268;48.188;17.134;2023-04-24T03:57:42;10.10;;;9.20;;
12407;SDS011;6268;48.188;17.134;2023-04-24T04:00:11;8.65;;;7.70;;
12407;SDS011;6268;48.188;17.134;2023-04-24T04:02:41;8.20;;;7.50;;
12407;SDS011;6268;48.188;17.134;2023-04-24T04:05:10;8.88;;;8.18;;
12407;SDS011;6268;48.188;17.134;2023-04-24T04:07:39;8.52;;;7.72;;
12407;SDS011;6268;48.188;17.134;2023-04-24T04:10:07;9.02;;;8.23;;
12407;SDS011;6268;48.188;17.134;2023-04-24T04:12:38;8.88;;;7.90;;
12407;SDS011;6268;48.188;17.134;2023-04-24T04:15:07;9.00;;;8.20;;
12407;SDS011;6268;48.188;17.134;2023-04-24T04:17:36;8.25;;;7.50;;
12407;SDS011;6268;48.188;17.134;2023-04-24T04:20:06;8.98;;;8.18;;
12407;SDS011;6268;48.188;17.134;2023-04-24T04:22:36;8.50;;;7.80;;
12407;SDS011;6268;48.188;17.134;2023-04-24T04:25:09;8.98;;;8.18;;
12407;SDS011;6268;48.188;17.134;2023-04-24T04:27:41;21.00;;;18.85;;
12407;SDS011;6268;48.188;17.134;2023-04-24T04:30:10;14.50;;;12.32;;
12407;SDS011;6268;48.188;17.134;2023-04-24T04:32:39;11.73;;;10.55;;
12407;SDS011;6268;48.188;17.134;2023-04-24T04:35:08;10.05;;;9.15;;
12407;SDS011;6268;48.188;17.134;2023-04-24T04:37:37;9.93;;;9.02;;
12407;SDS011;6268;48.188;17.134;2023-04-24T04:40:06;11.40;;;8.90;;
12407;SDS011;6268;48.188;17.134;2023-04-24T04:42:38;17.92;;;9.40;;
12407;SDS011;6268;48.188;17.134;2023-04-24T04:45:09;12.45;;;11.02;;
12407;SDS011;6268;48.188;17.134;2023-04-24T04:47:38;12.38;;;9.95;;
12407;SDS011;6268;48.188;17.134;2023-04-24T04:50:07;10.80;;;8.82;;
12407;SDS011;6268;48.188;17.134;2023-04-24T04:52:37;10.65;;;9.50;;
12407;SDS011;6268;48.188;17.134;2023-04-24T04:55:06;10.32;;;9.40;;
12407;SDS011;6268;48.188;17.134;2023-04-24T04:57:36;10.00;;;8.35;;
12407;SDS011;6268;48.188;17.134;2023-04-24T05:00:07;8.85;;;8.25;;
12407;SDS011;6268;48.188;17.134;2023-04-24T05:02:38;10.43;;;9.38;;
12407;SDS011;6268;48.188;17.134;2023-04-24T05:05:07;9.13;;;8.02;;
12407;SDS011;6268;48.188;17.134;2023-04-24T05:07:37;9.25;;;8.30;;
12407;SDS011;6268;48.188;17.134;2023-04-24T05:10:06;8.45;;;7.65;;
12407;SDS011;6268;48.188;17.134;2023-04-24T05:12:36;8.88;;;7.97;;
12407;SDS011;6268;48.188;17.134;2023-04-24T05:15:05;8.55;;;7.75;;
12407;SDS011;6268;48.188;17.134;2023-04-24T05:17:36;11.77;;;8.27;;
12407;SDS011;6268;48.188;17.134;2023-04-24T05:20:06;10.30;;;7.70;;
12407;SDS011;6268;48.188;17.134;2023-04-24T05:22:36;9.85;;;8.50;;
12407;SDS011;6268;48.188;17.134;2023-04-24T05:25:05;12.68;;;8.32;;
12407;SDS011;6268;48.188;17.134;2023-04-24T05:27:34;11.05;;;8.85;;
12407;SDS011;6268;48.188;17.134;2023-04-24T05:30:04;9.88;;;8.43;;
12407;SDS011;6268;48.188;17.134;2023-04-24T05:32:36;9.00;;;8.18;;
12407;SDS011;6268;48.188;17.134;2023-04-24T05:35:05;8.65;;;7.85;;
12407;SDS011;6268;48.188;17.134;2023-04-24T05:37:34;11.27;;;8.63;;
12407;SDS011;6268;48.188;17.134;2023-04-24T05:40:03;8.13;;;7.53;;
12407;SDS011;6268;48.188;17.134;2023-04-24T05:42:33;8.93;;;8.13;;
12407;SDS011;6268;48.188;17.134;2023-04-24T05:45:02;8.40;;;7.70;;
12407;SDS011;6268;48.188;17.134;2023-04-24T05:47:33;8.95;;;8.15;;
12407;SDS011;6268;48.188;17.134;2023-04-24T05:50:02;9.60;;;8.73;;
12407;SDS011;6268;48.188;17.134;2023-04-24T05:52:31;9.80;;;8.82;;
12407;SDS011;6268;48.188;17.134;2023-04-24T05:55:00;11.82;;;8.82;;
12407;SDS011;6268;48.188;17.134;2023-04-24T05:57:29;9.70;;;8.73;;
12407;SDS011;6268;48.188;17.134;2023-04-24T05:59:57;10.00;;;9.07;;
12407;SDS011;6268;48.188;17.134;2023-04-24T06:02:26;9.77;;;8.77;;
12407;SDS011;6268;48.188;17.134;2023-04-24T06:05:00;9.00;;;8.20;;
12407;SDS011;6268;48.188;17.134;2023-04-24T06:07:29;9.25;;;8.55;;
12407;SDS011;6268;48.188;17.134;2023-04-24T06:09:58;9.50;;;8.60;;
12407;SDS011;6268;48.188;17.134;2023-04-24T06:12:27;9.52;;;8.60;;
12407;SDS011;6268;48.188;17.134;2023-04-24T06:14:56;9.73;;;8.70;;
12407;SDS011;6268;48.188;17.134;2023-04-24T06:17:24;9.75;;;8.90;;
12407;SDS011;6268;48.188;17.134;2023-04-24T06:19:53;10.18;;;9.18;;
12407;SDS011;6268;48.188;17.134;2023-04-24T06:22:23;10.30;;;9.00;;
12407;SDS011;6268;48.188;17.134;2023-04-24T06:24:52;9.77;;;8.77;;
12407;SDS011;6268;48.188;17.134;2023-04-24T06:27:21;9.73;;;8.73;;
12407;SDS011;6268;48.188;17.134;2023-04-24T06:29:49;11.27;;;9.68;;
12407;SDS011;6268;48.188;17.134;2023-04-24T06:32:21;12.10;;;9.60;;
12407;SDS011;6268;48.188;17.134;2023-04-24T06:34:51;9.43;;;7.72;;
12407;SDS011;6268;48.188;17.134;2023-04-24T06:37:20;7.72;;;7.05;;
12407;SDS011;6268;48.188;17.134;2023-04-24T06:39:50;6.75;;;6.13;;
12407;SDS011;6268;48.188;17.134;2023-04-24T06:42:18;5.53;;;5.15;;
12407;SDS011;6268;48.188;17.134;2023-04-24T06:44:48;5.57;;;5.07;;
12407;SDS011;6268;48.188;17.134;2023-04-24T06:47:17;4.47;;;4.07;;
12407;SDS011;6268;48.188;17.134;2023-04-24T06:49:46;3.53;;;3.33;;
12407;SDS011;6268;48.188;17.134;2023-04-24T06:52:14;3.20;;;3.00;;
12407;SDS011;6268;48.188;17.134;2023-04-24T06:54:43;2.90;;;2.70;;
12407;SDS011;6268;48.188;17.134;2023-04-24T06:57:13;3.33;;;3.13;;
12407;SDS011;6268;48.188;17.134;2023-04-24T06:59:42;2.60;;;2.50;;
12407;SDS011;6268;48.188;17.134;2023-04-24T07:02:11;2.65;;;2.45;;
12407;SDS011;6268;48.188;17.134;2023-04-24T07:04:40;2.50;;;2.30;;
12407;SDS011;6268;48.188;17.134;2023-04-24T07:07:09;2.53;;;2.33;;
12407;SDS011;6268;48.188;17.134;2023-04-24T07:09:40;2.60;;;2.50;;
12407;SDS011;6268;48.188;17.134;2023-04-24T07:12:11;4.05;;;2.78;;
12407;SDS011;6268;48.188;17.134;2023-04-24T07:14:41;2.58;;;2.42;;
12407;SDS011;6268;48.188;17.134;2023-04-24T07:17:10;2.33;;;2.13;;
12407;SDS011;6268;48.188;17.134;2023-04-24T07:19:39;2.15;;;2.05;;
12407;SDS011;6268;48.188;17.134;2023-04-24T07:22:09;2.75;;;1.98;;
12407;SDS011;6268;48.188;17.134;2023-04-24T07:24:43;2.17;;;2.08;;
12407;SDS011;6268;48.188;17.134;2023-04-24T07:27:12;2.90;;;2.70;;
12407;SDS011;6268;48.188;17.134;2023-04-24T07:29:43;2.40;;;2.17;;
12407;SDS011;6268;48.188;17.134;2023-04-24T07:32:12;3.45;;;2.00;;
12407;SDS011;6268;48.188;17.134;2023-04-24T07:34:41;3.15;;;2.60;;
12407;SDS011;6268;48.188;17.134;2023-04-24T07:37:09;2.85;;;2.65;;
12407;SDS011;6268;48.188;17.134;2023-04-24T07:39:38;2.50;;;2.30;;
12407;SDS011;6268;48.188;17.134;2023-04-24T07:42:07;3.28;;;2.45;;
12407;SDS011;6268;48.188;17.134;2023-04-24T07:44:36;2.58;;;2.30;;
12407;SDS011;6268;48.188;17.134;2023-04-24T07:47:06;2.83;;;2.35;;
12407;SDS011;6268;48.188;17.134;2023-04-24T07:49:36;2.60;;;2.40;;
12407;SDS011;6268;48.188;17.134;2023-04-24T07:52:04;2.88;;;2.28;;
12407;SDS011;6268;48.188;17.134;2023-04-24T07:54:33;3.28;;;2.97;;
12407;SDS011;6268;48.188;17.134;2023-04-24T07:57:02;3.42;;;2.38;;
12407;SDS011;6268;48.188;17.134;2023-04-24T07:59:32;2.58;;;2.42;;
12407;SDS011;6268;48.188;17.134;2023-04-24T08:02:01;3.78;;;2.75;;
12407;SDS011;6268;48.188;17.134;2023-04-24T08:07:02;3.08;;;2.90;;
12407;SDS011;6268;48.188;17.134;2023-04-24T08:09:30;3.42;;;2.88;;
12407;SDS011;6268;48.188;17.134;2023-04-24T08:11:59;3.50;;;3.15;;
12407;SDS011;6268;48.188;17.134;2023-04-24T08:14:29;3.53;;;3.03;;
12407;SDS011;6268;48.188;17.134;2023-04-24T08:16:58;2.88;;;2.67;;
12407;SDS011;6268;48.188;17.134;2023-04-24T08:19:30;3.45;;;3.20;;
12407;SDS011;6268;48.188;17.134;2023-04-24T08:22:00;2.53;;;2.33;;
12407;SDS011;6268;48.188;17.134;2023-04-24T08:24:30;2.50;;;2.40;;
12407;SDS011;6268;48.188;17.134;2023-04-24T08:26:59;3.40;;;2.67;;
12407;SDS011;6268;48.188;17.134;2023-04-24T08:29:27;2.85;;;2.55;;
12407;SDS011;6268;48.188;17.134;2023-04-24T08:31:56;4.68;;;2.38;;
12407;SDS011;6268;48.188;17.134;2023-04-24T08:34:25;2.63;;;2.33;;
12407;SDS011;6268;48.188;17.134;2023-04-24T08:36:55;3.13;;;2.10;;
12407;SDS011;6268;48.188;17.134;2023-04-24T08:39:24;5.65;;;2.63;;
12407;SDS011;6268;48.188;17.134;2023-04-24T08:41:53;2.20;;;2.00;;
12407;SDS011;6268;48.188;17.134;2023-04-24T08:44:23;2.90;;;2.70;;
12407;SDS011;6268;48.188;17.134;2023-04-24T08:46:52;3.03;;;2.55;;
12407;SDS011;6268;48.188;17.134;2023-04-24T08:49:22;2.85;;;2.58;;
12407;SDS011;6268;48.188;17.134;2023-04-24T08:51:56;2.40;;;2.25;;
12407;SDS011;6268;48.188;17.134;2023-04-24T08:54:26;2.90;;;2.70;;
12407;SDS011;6268;48.188;17.134;2023-04-24T08:56:57;2.80;;;2.60;;
12407;SDS011;6268;48.188;17.134;2023-04-24T08:59:30;3.60;;;3.40;;
12407;SDS011;6268;48.188;17.134;2023-04-24T09:01:59;3.35;;;3.00;;
12407;SDS011;6268;48.188;17.134;2023-04-24T09:04:29;2.92;;;2.70;;
12407;SDS011;6268;48.188;17.134;2023-04-24T09:07:01;2.63;;;2.50;;
12407;SDS011;6268;48.188;17.134;2023-04-24T09:09:32;2.95;;;2.65;;
12407;SDS011;6268;48.188;17.134;2023-04-24T09:12:02;2.80;;;2.40;;
12407;SDS011;6268;48.188;17.134;2023-04-24T09:14:31;3.25;;;3.05;;
12407;SDS011;6268;48.188;17.134;2023-04-24T09:17:02;3.08;;;2.80;;
12407;SDS011;6268;48.188;17.134;2023-04-24T09:19:31;2.67;;;2.47;;
12407;SDS011;6268;48.188;17.134;2023-04-24T09:22:01;2.50;;;2.40;;
12407;SDS011;6268;48.188;17.134;2023-04-24T09:24:33;2.72;;;2.53;;
12407;SDS011;6268;48.188;17.134;2023-04-24T09:27:03;2.50;;;2.30;;
12407;SDS011;6268;48.188;17.134;2023-04-24T09:29:32;2.50;;;2.30;;
12407;SDS011;6268;48.188;17.134;2023-04-24T09:32:08;2.60;;;2.05;;
12407;SDS011;6268;48.188;17.134;2023-04-24T09:34:48;2.42;;;2.30;;
12407;SDS011;6268;48.188;17.134;2023-04-24T09:37:28;3.03;;;2.10;;
12407;SDS011;6268;48.188;17.134;2023-04-24T09:40:10;2.10;;;1.95;;
12407;SDS011;6268;48.188;17.134;2023-04-24T09:42:46;4.20;;;1.98;;
12407;SDS011;6268;48.188;17.134;2023-04-24T09:45:20;2.20;;;2.10;;
12407;SDS011;6268;48.188;17.134;2023-04-24T09:47:51;2.05;;;1.85;;
12407;SDS011;6268;48.188;17.134;2023-04-24T09:50:21;2.40;;;2.20;;
12407;SDS011;6268;48.188;17.134;2023-04-24T09:52:57;2.83;;;2.53;;
12407;SDS011;6268;48.188;17.134;2023-04-24T09:55:31;3.45;;;2.45;;
12407;SDS011;6268;48.188;17.134;2023-04-24T09:58:00;2.47;;;2.10;;
12407;SDS011;6268;48.188;17.134;2023-04-24T10:00:31;2.70;;;2.50;;
12407;SDS011;6268;48.188;17.134;2023-04-24T10:03:02;1.73;;;1.63;;
12407;SDS011;6268;48.188;17.134;2023-04-24T10:05:33;3.92;;;1.77;;
12407;SDS011;6268;48.188;17.134;2023-04-24T10:08:06;2.00;;;1.90;;
12407;SDS011;6268;48.188;17.134;2023-04-24T10:10:38;2.15;;;1.85;;
12407;SDS011;6268;48.188;17.134;2023-04-24T10:13:09;1.80;;;1.70;;
12407;SDS011;6268;48.188;17.134;2023-04-24T10:15:40;1.67;;;1.48;;
12407;SDS011;6268;48.188;17.134;2023-04-24T10:18:10;2.05;;;1.70;;
12407;SDS011;6268;48.188;17.134;2023-04-24T10:20:39;1.52;;;1.45;;
12407;SDS011;6268;48.188;17.134;2023-04-24T10:23:10;1.50;;;1.40;;
12407;SDS011;6268;48.188;17.134;2023-04-24T10:25:40;2.25;;;1.20;;
12407;SDS011;6268;48.188;17.134;2023-04-24T10:28:09;1.40;;;1.30;;
12407;SDS011;6268;48.188;17.134;2023-04-24T10:30:39;1.17;;;1.17;;
12407;SDS011;6268;48.188;17.134;2023-04-24T10:33:11;2.80;;;2.60;;
12407;SDS011;6268;48.188;17.134;2023-04-24T10:35:44;1.75;;;1.65;;
12407;SDS011;6268;48.188;17.134;2023-04-24T10:38:18;2.17;;;1.98;;
12407;SDS011;6268;48.188;17.134;2023-04-24T10:40:57;1.70;;;1.52;;
12407;SDS011;6268;48.188;17.134;2023-04-24T10:43:35;1.23;;;0.95;;
12407;SDS011;6268;48.188;17.134;2023-04-24T10:46:04;1.30;;;0.90;;
12407;SDS011;6268;48.188;17.134;2023-04-24T10:48:34;0.98;;;0.98;;
12407;SDS011;6268;48.188;17.134;2023-04-24T10:51:04;1.98;;;0.82;;
12407;SDS011;6268;48.188;17.134;2023-04-24T10:53:34;1.30;;;0.95;;
12407;SDS011;6268;48.188;17.134;2023-04-24T10:56:04;1.10;;;1.10;;
12407;SDS011;6268;48.188;17.134;2023-04-24T10:58:37;1.23;;;1.10;;
12407;SDS011;6268;48.188;17.134;2023-04-24T11:01:22;0.90;;;0.90;;
12407;SDS011;6268;48.188;17.134;2023-04-24T11:03:55;1.02;;;0.95;;
12407;SDS011;6268;48.188;17.134;2023-04-24T11:06:29;1.45;;;1.35;;
12407;SDS011;6268;48.188;17.134;2023-04-24T11:09:03;0.90;;;0.90;;
12407;SDS011;6268;48.188;17.134;2023-04-24T11:11:34;1.10;;;1.10;;
12407;SDS011;6268;48.188;17.134;2023-04-24T11:14:07;0.82;;;0.82;;
12407;SDS011;6268;48.188;17.134;2023-04-24T11:16:38;1.58;;;0.80;;
12407;SDS011;6268;48.188;17.134;2023-04-24T11:19:21;1.30;;;0.93;;
12407;SDS011;6268;48.188;17.134;2023-04-24T11:21:55;1.48;;;1.08;;
12407;SDS011;6268;48.188;17.134;2023-04-24T11:24:30;1.20;;;1.20;;
12407;SDS011;6268;48.188;17.134;2023-04-24T11:27:11;1.30;;;1.20;;
12407;SDS011;6268;48.188;17.134;2023-04-24T11:29:43;1.58;;;1.35;;
12407;SDS011;6268;48.188;17.134;2023-04-24T11:32:25;1.20;;;1.20;;
12407;SDS011;6268;48.188;17.134;2023-04-24T11:34:56;0.98;;;0.98;;
12407;SDS011;6268;48.188;17.134;2023-04-24T11:37:28;1.52;;;1.42;;
12407;SDS011;6268;48.188;17.134;2023-04-24T11:40:03;1.40;;;1.30;;
12407;SDS011;6268;48.188;17.134;2023-04-24T11:42:35;1.55;;;1.40;;
12407;SDS011;6268;48.188;17.134;2023-04-24T11:45:07;1.20;;;1.20;;
12407;SDS011;6268;48.188;17.134;2023-04-24T11:47:37;1.75;;;1.33;;
12407;SDS011;6268;48.188;17.134;2023-04-24T11:50:07;1.40;;;1.30;;
12407;SDS011;6268;48.188;17.134;2023-04-24T11:52:39;1.35;;;1.25;;
12407;SDS011;6268;48.188;17.134;2023-04-24T11:55:24;1.15;;;1.00;;
12407;SDS011;6268;48.188;17.134;2023-04-24T11:57:55;1.13;;;1.02;;
12407;SDS011;6268;48.188;17.134;2023-04-24T12:00:27;0.95;;;0.95;;
12407;SDS011;6268;48.188;17.134;2023-04-24T12:03:04;2.15;;;1.33;;
12407;SDS011;6268;48.188;17.134;2023-04-24T12:05:35;1.40;;;1.27;;
12407;SDS011;6268;48.188;17.134;2023-04-24T12:08:05;1.30;;;1.30;;
12407;SDS011;6268;48.188;17.134;2023-04-24T12:10:36;1.02;;;1.02;;
12407;SDS011;6268;48.188;17.134;2023-04-24T12:13:04;1.20;;;1.10;;
12407;SDS011;6268;48.188;17.134;2023-04-24T12:15:39;2.42;;;1.30;;
12407;SDS011;6268;48.188;17.134;2023-04-24T12:18:08;1.80;;;0.90;;
12407;SDS011;6268;48.188;17.134;2023-04-24T12:20:40;0.93;;;0.90;;
12407;SDS011;6268;48.188;17.134;2023-04-24T12:23:09;0.95;;;0.95;;
12407;SDS011;6268;48.188;17.134;2023-04-24T12:25:39;1.25;;;0.98;;
12407;SDS011;6268;48.188;17.134;2023-04-24T12:28:08;1.05;;;1.05;;
12407;SDS011;6268;48.188;17.134;2023-04-24T12:30:40;0.90;;;0.90;;
12407;SDS011;6268;48.188;17.134;2023-04-24T12:33:11;1.08;;;1.08;;
12407;SDS011;6268;48.188;17.134;2023-04-24T12:35:40;1.20;;;1.00;;
12407;SDS011;6268;48.188;17.134;2023-04-24T12:38:09;1.20;;;1.10;;
12407;SDS011;6268;48.188;17.134;2023-04-24T12:40:42;0.98;;;0.98;;
12407;SDS011;6268;48.188;17.134;2023-04-24T12:43:14;1.17;;;1.17;;
12407;SDS011;6268;48.188;17.134;2023-04-24T12:45:44;2.45;;;1.20;;
12407;SDS011;6268;48.188;17.134;2023-04-24T12:48:14;1.45;;;1.13;;
12407;SDS011;6268;48.188;17.134;2023-04-24T12:50:43;1.67;;;1.00;;
12407;SDS011;6268;48.188;17.134;2023-04-24T12:53:13;2.13;;;1.10;;
12407;SDS011;6268;48.188;17.134;2023-04-24T12:55:44;0.95;;;0.95;;
12407;SDS011;6268;48.188;17.134;2023-04-24T12:58:19;0.80;;;0.80;;
12407;SDS011;6268;48.188;17.134;2023-04-24T13:00:48;1.13;;;1.02;;
12407;SDS011;6268;48.188;17.134;2023-04-24T13:03:17;0.85;;;0.85;;
12407;SDS011;6268;48.188;17.134;2023-04-24T13:05:46;0.93;;;0.90;;
12407;SDS011;6268;48.188;17.134;2023-04-24T13:08:15;1.73;;;1.63;;
12407;SDS011;6268;48.188;17.134;2023-04-24T13:10:46;2.78;;;2.58;;
12407;SDS011;6268;48.188;17.134;2023-04-24T13:13:14;1.33;;;1.23;;
12407;SDS011;6268;48.188;17.134;2023-04-24T13:15:43;4.20;;;3.90;;
12407;SDS011;6268;48.188;17.134;2023-04-24T13:18:12;6.05;;;5.47;;
12407;SDS011;6268;48.188;17.134;2023-04-24T13:20:41;1.20;;;1.10;;
12407;SDS011;6268;48.188;17.134;2023-04-24T13:23:10;1.27;;;1.27;;
12407;SDS011;6268;48.188;17.134;2023-04-24T13:25:40;1.17;;;1.08;;
12407;SDS011;6268;48.188;17.134;2023-04-24T13:28:10;0.90;;;0.90;;
12407;SDS011;6268;48.188;17.134;2023-04-24T13:30:39;1.20;;;1.00;;
12407;SDS011;6268;48.188;17.134;2023-04-24T13:33:08;1.10;;;0.98;;
12407;SDS011;6268;48.188;17.134;2023-04-24T13:35:37;1.20;;;1.20;;
12407;SDS011;6268;48.188;17.134;2023-04-24T13:38:06;2.25;;;1.10;;
12407;SDS011;6268;48.188;17.134;2023-04-24T13:40:37;2.13;;;1.90;;
12407;SDS011;6268;48.188;17.134;2023-04-24T13:43:06;4.75;;;4.40;;
12407;SDS011;6268;48.188;17.134;2023-04-24T13:45:37;4.38;;;4.07;;
12407;SDS011;6268;48.188;17.134;2023-04-24T13:48:06;2.60;;;2.50;;
12407;SDS011;6268;48.188;17.134;2023-04-24T13:50:36;2.38;;;2.28;;
12407;SDS011;6268;48.188;17.134;2023-04-24T13:53:05;1.90;;;1.80;;
12407;SDS011;6268;48.188;17.134;2023-04-24T13:55:33;2.45;;;2.30;;
12407;SDS011;6268;48.188;17.134;2023-04-24T13:58:02;1.83;;;1.73;;
12407;SDS011;6268;48.188;17.134;2023-04-24T14:00:31;3.22;;;1.60;;
12407;SDS011;6268;48.188;17.134;2023-04-24T14:03:02;1.90;;;1.80;;
12407;SDS011;6268;48.188;17.134;2023-04-24T14:05:31;1.77;;;1.25;;
12407;SDS011;6268;48.188;17.134;2023-04-24T14:08:02;1.60;;;1.50;;
12407;SDS011;6268;48.188;17.134;2023-04-24T14:10:32;1.15;;;1.13;;
12407;SDS011;6268;48.188;17.134;2023-04-24T14:13:01;1.17;;;1.17;;
12407;SDS011;6268;48.188;17.134;2023-04-24T14:15:30;1.13;;;1.13;;
12407;SDS011;6268;48.188;17.134;2023-04-24T14:17:58;0.77;;;0.77;;
12407;SDS011;6268;48.188;17.134;2023-04-24T14:20:31;1.00;;;1.00;;
12407;SDS011;6268;48.188;17.134;2023-04-24T14:22:59;1.40;;;1.30;;
12407;SDS011;6268;48.188;17.134;2023-04-24T14:25:29;0.80;;;0.80;;
12407;SDS011;6268;48.188;17.134;2023-04-24T14:27:58;0.95;;;0.90;;
12407;SDS011;6268;48.188;17.134;2023-04-24T14:30:26;0.95;;;0.95;;
12407;SDS011;6268;48.188;17.134;2023-04-24T14:32:55;0.77;;;0.70;;
12407;SDS011;6268;48.188;17.134;2023-04-24T14:35:24;0.70;;;0.70;;
12407;SDS011;6268;48.188;17.134;2023-04-24T14:37:57;0.63;;;0.63;;
12407;SDS011;6268;48.188;17.134;2023-04-24T14:40:26;0.73;;;0.73;;
12407;SDS011;6268;48.188;17.134;2023-04-24T14:43:15;0.93;;;0.50;;
12407;SDS011;6268;48.188;17.134;2023-04-24T14:45:44;0.47;;;0.47;;
12407;SDS011;6268;48.188;17.134;2023-04-24T14:48:13;0.63;;;0.63;;
12407;SDS011;6268;48.188;17.134;2023-04-24T14:50:43;0.90;;;0.90;;
12407;SDS011;6268;48.188;17.134;2023-04-24T14:53:13;0.50;;;0.50;;
12407;SDS011;6268;48.188;17.134;2023-04-24T14:55:42;3.08;;;2.60;;
12407;SDS011;6268;48.188;17.134;2023-04-24T14:58:11;7.20;;;6.50;;
12407;SDS011;6268;48.188;17.134;2023-04-24T15:00:40;6.32;;;5.72;;
12407;SDS011;6268;48.188;17.134;2023-04-24T15:03:09;2.35;;;1.73;;
12407;SDS011;6268;48.188;17.134;2023-04-24T15:05:38;1.50;;;1.40;;